Nearby METAR Reports

 

KOXC - Oxford/Waterbury, Connecticut, USA
Distance from station: SE 8mi, 12km
Updated: Tue, 24-Jan-2017 1:55am EST
Overcast
Overcast
 Wind from NE
Wind: NE 21 mph , 33 km/h, Gust: 36 mph , 57 km/h
Temperature: 34°F , 1°C
Wind Chill: 22°F , -6°C
Dew Point: 28°F , -2°C
Humidity: 81%
Barometer: 29.42 inHg , 996.3 hPa
Clouds: Overcast
Visibility: 1 1/2 miles , 2 km
Cloud details: Overcast 800 ft
2017/01/24 06:55 KOXC 240655Z AUTO 05018G31KT 1 1/2SM OVC008 01/M02 A2942 RMK AO1
KDXR - Danbury, Connecticut, USA
Distance from station: SW 19mi, 30km
Updated: Tue, 24-Jan-2017 1:53am EST
Light rain, Mist, Overcast
Light rain, Mist, Overcast
 Wind from NE
Wind: NE 16 mph , 26 km/h, Gust: 31 mph , 50 km/h
Temperature: 34°F , 1°C
Wind Chill: 24°F , -4°C
Dew Point: 30°F , -1°C
Humidity: 87%
Barometer: 29.45 inHg , 997.3 hPa
Summary: Light rain, Mist
Clouds: Overcast
Visibility: 4 miles , 6 km
Cloud details: Overcast 1500 ft
2017/01/24 06:53 KDXR 240653Z AUTO 05014G27KT 4SM -RA BR OVC015 01/M01 A2945 RMK AO2 PK WND 04029/0635 SLP974 P0011 T00111011
 
KMMK - Meriden, Connecticut, USA
Distance from station: E 20mi, 33km
Updated: Tue, 24-Jan-2017 1:53am EST
Heavy rain, Mist, Overcast
Heavy rain, Mist, Overcast
 Wind from N
Wind: N 15 mph , 24 km/h, Gust: 28 mph , 44 km/h
Temperature: 36°F , 2°C
Wind Chill: 27°F , -3°C
Dew Point: 30°F , -1°C
Humidity: 81%
Barometer: 29.48 inHg , 998.3 hPa
Summary: Heavy rain, Mist
Clouds: Overcast
Visibility: 3 miles , 5 km
Cloud details: Mostly cloudy 700 ft
Overcast 1100 ft
2017/01/24 06:53 KMMK 240653Z AUTO 01013G24KT 3SM +RA BR BKN007 OVC011 02/M01 A2948 RMK AO2 PRESFR SLP983 P0015 T00171006 TSNO
KBDR - Bridgeport, Connecticut, USA
Distance from station: S 27mi, 44km
Updated: Tue, 24-Jan-2017 1:52am EST
Light rain, Overcast
Light rain, Overcast
 Wind from NE
Wind: NE 24 mph , 39 km/h, Gust: 40 mph , 65 km/h
Temperature: 37°F , 3°C
Wind Chill: 26°F , -3°C
Dew Point: 34°F , 1°C
Humidity: 87%
Barometer: 29.41 inHg , 995.9 hPa
Summary: Light rain
Clouds: Overcast
Visibility: 6 miles , 10 km
Cloud details: Partly cloudy 1400 ft
Mostly cloudy 2200 ft
Overcast 2900 ft
2017/01/24 06:52 KBDR 240652Z AUTO 04021G35KT 6SM -RA SCT014 BKN022 OVC029 03/01 A2941 RMK AO2 PK WND 04035/0649 SLP960 P0007 T00330006
 
KHVN - New Haven/Tweed, Connecticut, USA
Distance from station: SE 27mi, 44km
Updated: Tue, 24-Jan-2017 1:53am EST
Light rain, Overcast
Light rain, Overcast
 Wind from NNE
Wind: NNE 22 mph , 35 km/h, Gust: 33 mph , 54 km/h
Temperature: 37°F , 3°C
Wind Chill: 26°F , -3°C
Dew Point: 34°F , 1°C
Humidity: 87%
Barometer: 29.41 inHg , 995.9 hPa
Summary: Light rain
Clouds: Overcast
Visibility: 7 miles , 11 km
Cloud details: Partly cloudy 1800 ft
Mostly cloudy 2400 ft
Overcast 3000 ft
2017/01/24 06:53 KHVN 240653Z AUTO 03019G29KT 7SM -RA SCT018 BKN024 OVC030 03/01 A2941 RMK AO2 PK WND 04037/0610 UPB38E39 SLP959 P0007 T00280011
KHFD - Hartford/Brainar, Connecticut, USA
Distance from station: ENE 32mi, 52km
Updated: Tue, 24-Jan-2017 1:53am EST
Heavy rain, Mist, Overcast
Heavy rain, Mist, Overcast
 Wind from N
Wind: N 15 mph , 24 km/h
Temperature: 34°F , 1°C
Wind Chill: 24°F , -4°C
Dew Point: 30°F , -1°C
Humidity: 87%
Barometer: 29.55 inHg , 1000.7 hPa
Summary: Heavy rain, Mist
Clouds: Overcast
Visibility: 3 miles , 5 km
Cloud details: Few Clouds 800 ft
Few Clouds 1200 ft
Overcast 2300 ft
2017/01/24 06:53 KHFD 240653Z AUTO 01013KT 3SM +RA BR FEW008 FEW012 OVC023 01/M01 A2955 RMK AO2 UPB00E04SNB02E03 SLP005 P0011 T00061006
 
KPOU - Poughkeepsie, New York, USA
Distance from station: W 35mi, 56km
Updated: Tue, 24-Jan-2017 1:53am EST
Rain, Mist, Overcast
Rain, Mist, Overcast
 Wind from N
Wind: N 13 mph , 20 km/h
Temperature: 34°F , 1°C
Wind Chill: 25°F , -4°C
Dew Point: 30°F , -1°C
Humidity: 87%
Barometer: 29.50 inHg , 999 hPa
Summary: Rain, Mist
Clouds: Overcast
Visibility: 2 1/2 miles , 2 km
Cloud details: Few Clouds 2500 ft
Overcast 2900 ft
2017/01/24 06:53 KPOU 240653Z AUTO 36011KT 2 1/2SM RA BR FEW025 OVC029 01/M01 A2950 RMK AO2 SLP988 P0011 T00061006
KBDL - Windsor Locks, Connecticut, USA
Distance from station: NE 38mi, 62km
Updated: Tue, 24-Jan-2017 1:51am EST

 Wind from NNE
Wind: NNE 22 mph , 35 km/h, Gust: 28 mph , 44 km/h
Visibility: 4 miles , 6 km
2017/01/24 06:51 KBDL 240651Z 02019G24KT 4SM PLRA BR FEW012 BKN018 OVC023 01/M01 A2958 RMK AO2 PK WND 02028/0557 SLP020 P0006 T00061011 $
 
KSNC - Chester, Connecticut, USA
Distance from station: ESE 39mi, 63km
Updated: Tue, 24-Jan-2017 1:55am EST
Light snow, Mostly cloudy
Light snow, Mostly cloudy
 Wind from NE
Wind: NE 22 mph , 35 km/h, Gust: 37 mph , 59 km/h
Temperature: 37°F , 3°C
Wind Chill: 26°F , -3°C
Dew Point: 34°F , 1°C
Humidity: 87%
Barometer: 29.42 inHg , 996.3 hPa
Summary: Light Snow
Clouds: Mostly cloudy
Visibility: 4 miles , 6 km
Cloud details: Few Clouds 100 ft
Partly cloudy 1200 ft
Mostly cloudy 1800 ft
2017/01/24 06:55 KSNC 240655Z AUTO 04019G32KT 020V090 4SM -SN FEW001 SCT012 BKN018 03/01 A2942 RMK AO2
KHPN - White Plains, New York, USA
Distance from station: SW 42mi, 67km
Updated: Tue, 24-Jan-2017 1:56am EST
Light rain, Mist, Mostly cloudy
Light rain, Mist, Mostly cloudy
 Wind from NE
Wind: NE 14 mph , 22 km/h, Gust: 29 mph , 46 km/h
Temperature: 37°F , 3°C
Wind Chill: 28°F , -2°C
Dew Point: 34°F , 1°C
Humidity: 87%
Barometer: 29.39 inHg , 995.3 hPa
Summary: Light rain, Mist
Clouds: Mostly cloudy
Visibility: 5 miles , 8 km
Cloud details: Mostly cloudy 1600 ft
2017/01/24 06:56 KHPN 240656Z 04012G25KT 5SM -RA BR BKN016 03/01 A2939 RMK AO2 PK WND 05030/0612 SLP956 P0011 T00280006
 
KSWF - Newburgh/Stewart, New York, USA
Distance from station: W 45mi, 72km
Updated: Tue, 24-Jan-2017 1:45am EST

 Wind from NE
Wind: NE 13 mph , 20 km/h, Gust: 32 mph , 52 km/h
Visibility: 2 1/2 miles , 2 km
2017/01/24 06:45 KSWF 240645Z 05011G28KT 2 1/2SM PL-RA BR BKN008 OVC025 00/00 A2949
KBAF - Westfield, Massachusetts, USA
Distance from station: NNE 50mi, 80km
Updated: Tue, 24-Jan-2017 1:53am EST
Overcast
Overcast
 Wind from NNE
Wind: NNE 16 mph , 26 km/h
Temperature: 30°F , -1°C
Wind Chill: 19°F , -7°C
Barometer: 29.61 inHg , 1002.7 hPa
Clouds: Overcast
Visibility: 3 miles , 5 km
Cloud details: Few Clouds 1200 ft
Overcast 1900 ft
2017/01/24 06:53 KBAF 240653Z AUTO 02014KT 3SM UP FEW012 OVC019 M01/ A2961 RMK AO2 SLP031 P0010 T1006 $